Terminal Aerodrome Forecast
Issued by NWS

Home | Current Version | Previous Version | Text Only | Print | Product List | Glossary Off
Versions: 1 2 3 4 5 6 7 8 9 10 11 12 13 14 15 16 17 18 19 20 21

000
FTUS42 KTBW 201136
TAFPIE
TAF
KPIE 201136Z 2012/2112 VRB03KT P6SM FEW005
      TEMPO 2012/2014 1SM BR BKN005
     FM201500 09006KT P6SM FEW015
     FM202000 VRB04KT P6SM FEW030
     FM210000 33006KT P6SM SCT050
     FM210200 VRB04KT P6SM SCT050
     FM210500 09006KT P6SM FEW020 SCT250=

USA.gov is the U.S. government's official web portal to all federal, state and local government web resources and services.